Time;durP1;ratioP1;P1;durP2;ratioP2;P2;SDS_P1;SDS_P2;PMS_P1;PMS_P2;Temp;Humidity;BMP_temperature;BMP_pressure;BME280_temperature;BME280_humidity;BME280_pressure;Samples;Min_cycle;Max_cycle;Signal;HPM_P1;HPM_P2
2023/03/17 00:00:50;;;;;;;13.00;7.80;;;6.40;92.40;;;;;;4981596;28;20035;-60
2023/03/17 00:03:22;;;;;;;11.70;7.57;;;6.40;92.30;;;;;;4973687;28;20490;-62
2023/03/17 00:05:48;;;;;;;10.73;7.32;;;6.30;92.30;;;;;;4959554;28;20031;-63
2023/03/17 00:08:26;;;;;;;11.63;8.18;;;6.30;92.30;;;;;;4979617;28;20382;-61
2023/03/17 00:10:54;;;;;;;10.85;7.47;;;6.30;92.20;;;;;;4987751;28;20023;-61
2023/03/17 00:13:20;;;;;;;9.75;7.03;;;6.30;92.30;;;;;;4963586;28;20038;-62
2023/03/17 00:15:52;;;;;;;11.02;7.57;;;6.30;92.40;;;;;;4975914;28;20043;-62
2023/03/17 00:18:19;;;;;;;10.73;7.30;;;6.30;92.30;;;;;;4977167;28;20172;-62
2023/03/17 00:20:46;;;;;;;11.48;7.63;;;6.30;92.40;;;;;;4977664;28;20057;-62
2023/03/17 00:23:18;;;;;;;12.45;7.53;;;6.30;92.30;;;;;;4975739;28;20035;-63
2023/03/17 00:25:45;;;;;;;10.35;6.80;;;6.30;92.30;;;;;;4975155;28;20082;-62
2023/03/17 00:28:22;;;;;;;9.63;6.78;;;6.30;92.40;;;;;;4980074;28;20046;-61
2023/03/17 00:30:53;;;;;;;9.15;6.57;;;6.30;92.30;;;;;;4975944;28;20054;-61
2023/03/17 00:33:22;;;;;;;10.07;6.67;;;6.30;92.40;;;;;;4987205;28;20049;-61
2023/03/17 00:35:47;;;;;;;9.02;6.10;;;6.30;92.40;;;;;;4977143;28;20272;-61
2023/03/17 00:38:15;;;;;;;11.43;7.25;;;6.20;92.40;;;;;;4973106;28;20062;-63
2023/03/17 00:40:42;;;;;;;9.85;6.68;;;6.20;92.40;;;;;;4976967;28;20042;-61
2023/03/17 00:43:08;;;;;;;11.15;7.03;;;6.20;92.30;;;;;;4983620;28;20339;-61
2023/03/17 00:45:33;;;;;;;9.77;6.20;;;6.30;92.40;;;;;;4975211;28;20492;-60
2023/03/17 00:47:59;;;;;;;9.05;6.43;;;6.20;92.30;;;;;;4981486;28;20039;-62
2023/03/17 00:50:26;;;;;;;10.52;6.95;;;6.20;92.30;;;;;;4983350;28;20037;-63
2023/03/17 00:52:55;;;;;;;8.52;6.50;;;6.20;92.30;;;;;;4985251;28;20343;-60
2023/03/17 00:55:22;;;;;;;9.77;6.20;;;6.20;92.30;;;;;;4976376;28;20034;-61
2023/03/17 00:57:49;;;;;;;9.23;6.70;;;6.20;92.30;;;;;;4971126;28;20024;-61
2023/03/17 01:00:28;;;;;;;9.20;6.00;;;6.20;92.40;;;;;;4975516;28;20524;-61
2023/03/17 01:02:55;;;;;;;10.07;6.28;;;6.20;92.20;;;;;;4975552;28;20038;-59
2023/03/17 01:05:23;;;;;;;9.88;6.43;;;6.10;92.30;;;;;;4973241;28;20085;-62
2023/03/17 01:07:53;;;;;;;9.00;6.63;;;6.10;92.30;;;;;;4980435;28;20026;-61
2023/03/17 01:10:28;;;;;;;9.32;6.18;;;6.10;92.30;;;;;;4985340;28;20058;-61
2023/03/17 01:12:57;;;;;;;10.38;5.82;;;6.10;92.20;;;;;;4974673;28;20045;-60
2023/03/17 01:15:24;;;;;;;9.93;6.03;;;6.10;92.30;;;;;;4977795;28;20483;-62
2023/03/17 01:17:51;;;;;;;8.10;5.65;;;6.00;92.30;;;;;;4983272;28;20022;-62
2023/03/17 01:20:26;;;;;;;9.00;6.20;;;6.10;92.40;;;;;;4980037;28;20481;-62
2023/03/17 01:22:52;;;;;;;8.32;5.60;;;6.00;92.20;;;;;;4976133;28;20533;-61
2023/03/17 01:25:18;;;;;;;7.63;5.60;;;6.00;92.30;;;;;;4969776;28;20130;-61
2023/03/17 01:27:45;;;;;;;11.05;7.00;;;6.00;92.30;;;;;;4975132;28;20035;-62
2023/03/17 01:30:41;;;;;;;8.43;6.20;;;6.00;92.40;;;;;;4966248;28;20050;-62
2023/03/17 01:33:09;;;;;;;7.68;5.50;;;6.00;92.30;;;;;;4978494;28;20026;-61
2023/03/17 01:35:37;;;;;;;8.70;6.07;;;6.00;92.50;;;;;;4976687;28;20038;-61
2023/03/17 01:38:03;;;;;;;7.18;5.88;;;5.90;92.50;;;;;;4971703;28;20045;-61
2023/03/17 01:40:32;;;;;;;9.07;6.47;;;6.00;92.50;;;;;;4973582;28;20031;-61
2023/03/17 01:43:07;;;;;;;8.48;5.80;;;5.90;92.50;;;;;;4982940;28;20030;-63
2023/03/17 01:46:11;;;;;;;7.82;6.10;;;5.90;92.50;;;;;;4974349;28;20030;-61
2023/03/17 01:48:59;;;;;;;8.90;5.88;;;5.90;92.40;;;;;;4969974;28;20062;-61
2023/03/17 01:51:41;;;;;;;8.98;6.22;;;5.90;92.40;;;;;;4949637;28;20153;-61
2023/03/17 01:54:13;;;;;;;9.65;6.38;;;5.90;92.60;;;;;;4976305;28;20090;-63
2023/03/17 01:56:40;;;;;;;9.73;6.43;;;5.90;92.70;;;;;;4970734;28;20046;-61
2023/03/17 01:59:08;;;;;;;8.98;5.95;;;5.90;92.70;;;;;;4968302;28;20438;-62
2023/03/17 02:01:39;;;;;;;9.30;6.35;;;5.80;92.70;;;;;;4980197;28;20055;-63
2023/03/17 02:04:06;;;;;;;8.45;6.28;;;5.80;92.70;;;;;;4975189;28;20042;-61
2023/03/17 02:06:32;;;;;;;7.85;5.82;;;5.80;92.80;;;;;;4973976;28;20038;-61
2023/03/17 02:08:59;;;;;;;9.13;6.25;;;5.80;92.80;;;;;;4975694;28;20045;-62
2023/03/17 02:11:25;;;;;;;8.35;6.18;;;5.80;92.80;;;;;;4971148;28;20023;-62
2023/03/17 02:13:50;;;;;;;8.30;5.68;;;5.80;92.90;;;;;;4965168;28;20106;-61
2023/03/17 02:16:16;;;;;;;6.78;5.10;;;5.80;92.80;;;;;;4972983;28;20440;-61
2023/03/17 02:18:43;;;;;;;7.85;5.72;;;5.80;92.90;;;;;;4981474;28;20532;-62
2023/03/17 02:21:27;;;;;;;7.03;5.47;;;5.80;92.90;;;;;;4973140;28;20046;-62
2023/03/17 02:23:54;;;;;;;8.10;5.53;;;5.80;92.90;;;;;;4978820;28;20038;-62
2023/03/17 02:26:23;;;;;;;6.85;5.32;;;5.80;92.90;;;;;;4974694;28;20035;-62
2023/03/17 02:28:49;;;;;;;8.25;5.72;;;5.80;92.80;;;;;;4979751;28;20027;-62
2023/03/17 02:31:16;;;;;;;7.25;5.25;;;5.80;92.70;;;;;;4978434;28;20033;-64
2023/03/17 02:33:41;;;;;;;7.78;5.47;;;5.70;92.70;;;;;;4984400;28;20038;-62
2023/03/17 02:36:08;;;;;;;7.38;5.13;;;5.70;92.70;;;;;;4972884;28;20517;-63
2023/03/17 02:38:34;;;;;;;7.00;4.97;;;5.70;92.70;;;;;;4975579;28;20429;-60
2023/03/17 02:41:00;;;;;;;6.22;5.25;;;5.70;92.80;;;;;;4971144;28;20019;-62
2023/03/17 02:43:26;;;;;;;7.43;5.40;;;5.70;92.80;;;;;;4972052;28;20434;-60
2023/03/17 02:45:52;;;;;;;7.05;5.63;;;5.70;92.90;;;;;;4975081;28;20031;-61
2023/03/17 02:48:17;;;;;;;6.57;4.93;;;5.70;92.80;;;;;;4981438;28;20091;-62
2023/03/17 02:50:44;;;;;;;6.88;5.30;;;5.70;92.80;;;;;;4980377;28;20034;-62
2023/03/17 02:53:10;;;;;;;6.97;4.97;;;5.70;92.80;;;;;;4969882;28;20039;-63
2023/03/17 02:55:35;;;;;;;7.40;5.80;;;5.70;92.90;;;;;;4963283;28;20041;-62
2023/03/17 02:58:02;;;;;;;8.48;5.47;;;5.70;92.80;;;;;;4968245;28;20529;-62
2023/03/17 03:00:28;;;;;;;6.95;5.68;;;5.60;92.80;;;;;;4982650;28;20026;-62
2023/03/17 03:02:54;;;;;;;7.47;6.18;;;5.70;92.80;;;;;;4982830;28;20033;-61
2023/03/17 03:05:20;;;;;;;10.00;6.13;;;5.70;92.80;;;;;;4973844;28;20030;-62
2023/03/17 03:07:45;;;;;;;7.60;5.45;;;5.70;92.90;;;;;;4967885;28;20035;-61
2023/03/17 03:10:11;;;;;;;7.55;5.57;;;5.70;92.90;;;;;;4979434;28;20032;-62
2023/03/17 03:12:37;;;;;;;8.25;6.43;;;5.70;92.80;;;;;;4977496;28;20030;-61
2023/03/17 03:15:03;;;;;;;7.68;5.50;;;5.70;92.70;;;;;;4974755;28;20030;-62
2023/03/17 03:17:28;;;;;;;8.48;5.95;;;5.70;92.70;;;;;;4975276;28;20694;-63
2023/03/17 03:19:54;;;;;;;7.10;5.78;;;5.60;92.70;;;;;;4972750;28;20019;-62
2023/03/17 03:22:20;;;;;;;8.18;5.45;;;5.60;92.70;;;;;;4982171;28;20031;-61
2023/03/17 03:24:45;;;;;;;7.15;5.15;;;5.60;92.70;;;;;;4973698;28;20057;-61
2023/03/17 03:27:11;;;;;;;6.38;5.15;;;5.60;92.70;;;;;;4973322;28;20394;-62
2023/03/17 03:29:37;;;;;;;7.72;5.47;;;5.60;92.70;;;;;;4979451;28;20113;-63
2023/03/17 03:32:03;;;;;;;6.25;4.60;;;5.60;92.70;;;;;;4979887;28;20042;-62
2023/03/17 03:34:29;;;;;;;7.78;5.15;;;5.60;92.80;;;;;;4976919;28;20035;-62
2023/03/17 03:36:55;;;;;;;6.55;5.00;;;5.60;92.80;;;;;;4975105;28;20058;-64
2023/03/17 03:39:20;;;;;;;6.75;4.95;;;5.60;92.70;;;;;;4978466;28;20034;-64
2023/03/17 03:41:46;;;;;;;7.13;5.63;;;5.60;92.70;;;;;;4978932;28;20030;-59
2023/03/17 03:44:11;;;;;;;6.63;4.75;;;5.60;92.70;;;;;;4971597;28;20035;-63
2023/03/17 03:46:37;;;;;;;7.13;5.30;;;5.60;92.70;;;;;;4973651;28;20035;-63
2023/03/17 03:49:03;;;;;;;7.45;4.93;;;5.60;92.80;;;;;;4982776;28;20023;-63
2023/03/17 03:51:28;;;;;;;6.03;4.93;;;5.60;92.80;;;;;;4975211;28;20392;-63
2023/03/17 03:53:54;;;;;;;7.43;5.15;;;5.50;92.80;;;;;;4973287;28;20529;-60
2023/03/17 03:56:20;;;;;;;7.43;4.75;;;5.50;92.80;;;;;;4972180;28;20037;-63
2023/03/17 03:58:46;;;;;;;6.45;5.05;;;5.50;92.90;;;;;;4981537;28;20031;-62
2023/03/17 04:01:12;;;;;;;7.07;5.38;;;5.50;92.90;;;;;;4973052;28;20082;-63
2023/03/17 04:03:38;;;;;;;6.28;4.63;;;5.40;93.00;;;;;;4964890;28;20494;-62
2023/03/17 04:06:04;;;;;;;7.15;4.80;;;5.40;93.10;;;;;;4969466;28;20046;-64
2023/03/17 04:08:33;;;;;;;7.30;4.97;;;5.40;93.10;;;;;;4975875;28;20039;-64
2023/03/17 04:10:59;;;;;;;5.63;4.95;;;5.40;93.10;;;;;;4972410;28;20473;-63
2023/03/17 04:13:24;;;;;;;6.65;5.03;;;5.40;93.10;;;;;;4972332;28;20045;-62
2023/03/17 04:15:50;;;;;;;7.65;5.28;;;5.40;93.20;;;;;;4974003;28;20077;-61
2023/03/17 04:18:17;;;;;;;6.07;4.65;;;5.40;93.20;;;;;;4974342;28;20501;-64
2023/03/17 04:20:43;;;;;;;6.90;5.10;;;5.40;93.20;;;;;;4971910;28;20030;-62
2023/03/17 04:23:08;;;;;;;5.88;5.00;;;5.40;93.10;;;;;;4980912;28;20031;-63
2023/03/17 04:25:34;;;;;;;7.25;5.10;;;5.40;93.00;;;;;;4973777;28;20462;-65
2023/03/17 04:28:00;;;;;;;7.07;5.40;;;5.40;93.00;;;;;;4972141;28;20034;-63
2023/03/17 04:30:26;;;;;;;5.45;4.72;;;5.40;93.10;;;;;;4962842;28;20082;-61
2023/03/17 04:32:52;;;;;;;6.93;5.43;;;5.40;93.20;;;;;;4982341;28;20031;-62
2023/03/17 04:35:20;;;;;;;6.07;4.60;;;5.30;93.10;;;;;;4973777;28;20098;-61
2023/03/17 04:37:46;;;;;;;7.18;4.90;;;5.30;93.10;;;;;;4970252;28;20027;-63
2023/03/17 04:40:13;;;;;;;6.78;5.15;;;5.30;93.20;;;;;;4982219;28;20114;-62
2023/03/17 04:42:39;;;;;;;5.75;4.65;;;5.30;93.10;;;;;;4975413;28;20027;-62
2023/03/17 04:45:08;;;;;;;6.50;4.75;;;5.30;93.10;;;;;;4976320;28;20449;-61
2023/03/17 04:47:33;;;;;;;6.20;4.93;;;5.30;93.10;;;;;;4976971;28;20030;-61
2023/03/17 04:50:00;;;;;;;6.00;4.55;;;5.30;93.10;;;;;;4971461;28;20035;-61
2023/03/17 04:52:26;;;;;;;6.97;5.05;;;5.20;93.10;;;;;;4974403;28;20134;-61
2023/03/17 04:54:52;;;;;;;4.70;4.20;;;5.30;93.30;;;;;;4977398;28;20085;-61
2023/03/17 04:57:17;;;;;;;5.82;4.32;;;5.20;93.20;;;;;;4981938;28;20034;-61
2023/03/17 04:59:43;;;;;;;4.72;4.22;;;5.20;93.20;;;;;;4977524;28;20034;-61
2023/03/17 05:02:09;;;;;;;5.18;4.47;;;5.30;93.50;;;;;;4974573;28;20045;-61
2023/03/17 05:04:35;;;;;;;5.38;4.55;;;5.30;93.20;;;;;;4984997;28;20161;-60
2023/03/17 05:07:01;;;;;;;6.13;4.70;;;5.20;93.10;;;;;;4981834;28;20363;-61
2023/03/17 05:09:27;;;;;;;6.63;4.65;;;5.20;93.10;;;;;;4974197;28;20046;-61
2023/03/17 05:11:53;;;;;;;6.50;4.80;;;5.20;93.20;;;;;;4985217;28;20034;-61
2023/03/17 05:14:19;;;;;;;5.50;4.32;;;5.20;93.20;;;;;;4976051;28;20034;-61
2023/03/17 05:16:48;;;;;;;4.82;4.22;;;5.20;93.20;;;;;;4978058;28;20031;-61
2023/03/17 05:19:14;;;;;;;6.53;5.03;;;5.20;93.20;;;;;;4974357;28;20054;-62
2023/03/17 05:21:41;;;;;;;5.43;4.20;;;5.20;93.20;;;;;;4981942;28;20034;-61
2023/03/17 05:24:07;;;;;;;6.07;4.70;;;5.20;93.10;;;;;;4973118;28;20050;-62
2023/03/17 05:26:34;;;;;;;6.47;4.63;;;5.20;93.10;;;;;;4975837;28;20046;-59
2023/03/17 05:28:59;;;;;;;5.82;4.32;;;5.20;93.20;;;;;;4975576;28;20022;-62
2023/03/17 05:31:25;;;;;;;5.43;4.63;;;5.20;93.40;;;;;;4978843;28;20351;-62
2023/03/17 05:33:51;;;;;;;5.28;3.97;;;5.20;93.10;;;;;;4978544;28;20030;-62
2023/03/17 05:36:17;;;;;;;5.22;4.70;;;5.20;93.10;;;;;;4975790;28;20035;-61
2023/03/17 05:38:43;;;;;;;5.40;4.70;;;5.20;93.10;;;;;;4974019;28;20027;-61
2023/03/17 05:41:09;;;;;;;5.45;4.53;;;5.20;93.10;;;;;;4979351;28;20036;-62
2023/03/17 05:43:36;;;;;;;5.88;4.40;;;5.20;93.10;;;;;;4973105;28;20460;-62
2023/03/17 05:46:02;;;;;;;5.32;4.82;;;5.20;93.10;;;;;;4971810;28;20540;-63
2023/03/17 05:48:28;;;;;;;5.82;4.97;;;5.20;93.20;;;;;;4979739;28;20023;-61
2023/03/17 05:50:53;;;;;;;6.05;4.75;;;5.20;93.10;;;;;;4982630;28;20555;-60
2023/03/17 05:53:19;;;;;;;5.40;4.72;;;5.20;93.00;;;;;;4966808;28;20035;-61
2023/03/17 05:55:45;;;;;;;5.57;4.65;;;5.20;93.00;;;;;;4977758;28;20042;-61
2023/03/17 05:58:11;;;;;;;6.47;4.88;;;5.20;93.10;;;;;;4979803;28;20043;-62
2023/03/17 06:00:37;;;;;;;6.15;4.90;;;5.20;93.00;;;;;;4975018;28;20031;-60
2023/03/17 06:03:03;;;;;;;5.47;4.50;;;5.20;93.00;;;;;;4978479;28;20029;-62
2023/03/17 06:05:29;;;;;;;5.65;4.70;;;5.20;93.10;;;;;;4984009;28;20062;-62
2023/03/17 06:07:55;;;;;;;6.05;4.95;;;5.20;93.10;;;;;;4973796;28;20023;-61
2023/03/17 06:10:21;;;;;;;6.38;4.95;;;5.20;93.10;;;;;;4965620;28;20105;-62
2023/03/17 06:12:47;;;;;;;6.43;4.70;;;5.20;93.20;;;;;;4984197;28;20031;-61
2023/03/17 06:15:13;;;;;;;5.70;4.55;;;5.20;93.20;;;;;;4973707;28;20105;-59
2023/03/17 06:17:38;;;;;;;5.95;4.22;;;5.20;93.20;;;;;;4972896;28;20377;-62
2023/03/17 06:20:04;;;;;;;5.57;4.22;;;5.20;93.20;;;;;;4966558;28;20035;-62
2023/03/17 06:22:30;;;;;;;6.95;4.35;;;5.20;93.10;;;;;;4981476;28;20023;-62
2023/03/17 06:24:56;;;;;;;6.35;4.20;;;5.20;93.00;;;;;;4981778;28;20556;-61
2023/03/17 06:27:22;;;;;;;6.15;4.57;;;5.20;93.00;;;;;;4974226;28;20110;-62
2023/03/17 06:29:47;;;;;;;6.18;4.38;;;5.20;93.00;;;;;;4977836;28;20493;-60
2023/03/17 06:32:14;;;;;;;5.35;4.20;;;5.20;93.10;;;;;;4965701;28;20030;-61
2023/03/17 06:34:41;;;;;;;5.40;3.90;;;5.20;93.00;;;;;;4975064;28;20073;-61
2023/03/17 06:37:09;;;;;;;4.88;3.95;;;5.30;93.00;;;;;;4964380;28;20039;-61
2023/03/17 06:39:34;;;;;;;4.50;4.00;;;5.30;92.90;;;;;;4968404;28;20121;-61
2023/03/17 06:42:00;;;;;;;4.40;3.85;;;5.30;92.90;;;;;;4969063;28;20097;-60
2023/03/17 06:44:26;;;;;;;5.13;3.97;;;5.30;93.10;;;;;;4973520;28;20534;-61
2023/03/17 06:46:52;;;;;;;4.75;3.65;;;5.30;92.70;;;;;;4967986;28;20156;-60
2023/03/17 06:49:18;;;;;;;4.68;4.18;;;5.30;92.70;;;;;;4981785;28;20095;-63
2023/03/17 06:51:43;;;;;;;5.03;3.83;;;5.40;92.60;;;;;;4969876;28;20026;-63
2023/03/17 06:54:09;;;;;;;6.25;3.60;;;5.40;92.50;;;;;;4967092;28;20039;-62
2023/03/17 06:56:34;;;;;;;4.93;3.75;;;5.40;92.50;;;;;;4966249;28;20042;-60
2023/03/17 06:59:00;;;;;;;4.55;3.50;;;5.40;92.50;;;;;;4975589;28;20386;-61
2023/03/17 07:01:26;;;;;;;4.38;3.83;;;5.40;92.40;;;;;;4967991;28;20438;-61
2023/03/17 07:03:52;;;;;;;5.22;3.88;;;5.40;92.30;;;;;;4973448;28;20031;-59
2023/03/17 07:06:17;;;;;;;5.25;4.13;;;5.30;92.20;;;;;;4977132;28;20034;-61
2023/03/17 07:08:45;;;;;;;4.57;3.67;;;5.30;92.20;;;;;;4978431;28;20030;-61
2023/03/17 07:11:10;;;;;;;5.15;3.80;;;5.30;92.20;;;;;;4969226;28;20387;-62
2023/03/17 07:13:37;;;;;;;5.10;3.53;;;5.30;92.20;;;;;;4964162;28;20042;-62
2023/03/17 07:16:03;;;;;;;5.32;3.85;;;5.40;92.20;;;;;;4958061;28;20070;-61
2023/03/17 07:18:30;;;;;;;5.55;4.30;;;5.40;92.20;;;;;;4968057;28;20035;-61
2023/03/17 07:20:57;;;;;;;4.38;3.85;;;5.40;92.10;;;;;;4963705;28;20027;-58
2023/03/17 07:23:23;;;;;;;4.88;3.78;;;5.40;92.10;;;;;;4960302;28;20406;-63
2023/03/17 07:25:50;;;;;;;5.03;3.80;;;5.40;92.20;;;;;;4968219;28;20047;-64
2023/03/17 07:28:16;;;;;;;4.78;3.42;;;5.40;92.10;;;;;;4967210;28;20375;-61
2023/03/17 07:30:45;;;;;;;5.43;3.40;;;5.40;92.10;;;;;;4968816;28;20037;-62
2023/03/17 07:33:12;;;;;;;4.18;3.78;;;5.50;92.00;;;;;;4961163;28;20042;-63
2023/03/17 07:35:38;;;;;;;4.47;3.40;;;5.50;92.00;;;;;;4958194;28;20034;-60
2023/03/17 07:38:04;;;;;;;4.70;3.25;;;5.50;91.90;;;;;;4961709;28;20045;-62
2023/03/17 07:40:30;;;;;;;6.13;3.45;;;5.50;91.80;;;;;;4962543;28;20081;-61
2023/03/17 07:42:56;;;;;;;5.57;3.55;;;5.50;91.80;;;;;;4954834;28;20700;-60
2023/03/17 07:45:21;;;;;;;3.80;3.22;;;5.50;91.70;;;;;;4955273;28;20035;-61
2023/03/17 07:47:47;;;;;;;4.55;3.47;;;5.50;91.60;;;;;;4951504;28;20027;-62
2023/03/17 07:50:13;;;;;;;5.30;3.33;;;5.50;91.70;;;;;;4951482;28;20066;-61
2023/03/17 07:52:39;;;;;;;3.83;3.25;;;5.50;91.60;;;;;;4949353;28;21863;-59
2023/03/17 07:55:11;;;;;;;4.95;3.17;;;5.50;91.60;;;;;;4948788;28;20094;-59
2023/03/17 07:57:37;;;;;;;4.38;3.28;;;5.60;91.60;;;;;;4956208;28;20039;-61
2023/03/17 08:00:12;;;;;;;5.80;3.78;;;5.50;91.50;;;;;;4956978;28;20086;-59
2023/03/17 08:02:38;;;;;;;4.97;3.70;;;5.50;91.50;;;;;;4952406;28;20125;-61
2023/03/17 08:05:06;;;;;;;5.80;3.50;;;5.60;91.60;;;;;;4957731;28;20575;-60
2023/03/17 08:07:33;;;;;;;5.63;4.22;;;5.60;91.90;;;;;;4958737;28;20031;-61
2023/03/17 08:09:58;;;;;;;9.05;7.45;;;5.60;91.60;;;;;;4952796;28;20109;-61
2023/03/17 08:12:24;;;;;;;8.88;7.43;;;5.60;91.70;;;;;;4973115;28;20038;-60
2023/03/17 08:14:50;;;;;;;9.18;7.55;;;5.60;91.50;;;;;;4951821;28;20026;-61
2023/03/17 08:17:16;;;;;;;6.65;4.53;;;5.60;91.60;;;;;;4959008;28;20801;-64
2023/03/17 08:19:42;;;;;;;4.32;3.90;;;5.70;91.60;;;;;;4960824;28;20759;-63
2023/03/17 08:22:08;;;;;;;4.43;3.67;;;5.70;91.40;;;;;;4958753;28;20053;-63
2023/03/17 08:24:35;;;;;;;4.18;3.22;;;5.70;91.40;;;;;;4955893;28;21173;-62
2023/03/17 08:27:02;;;;;;;4.60;3.03;;;5.70;91.30;;;;;;4957445;28;20038;-62
2023/03/17 08:29:29;;;;;;;5.47;3.22;;;5.70;91.30;;;;;;4957509;28;20039;-59
2023/03/17 08:31:55;;;;;;;3.85;2.88;;;5.80;91.30;;;;;;4954973;28;20046;-61
2023/03/17 08:34:22;;;;;;;5.18;3.30;;;5.80;91.20;;;;;;4958908;28;20059;-59
2023/03/17 08:36:49;;;;;;;4.03;3.08;;;5.80;91.20;;;;;;4962786;28;20030;-60
2023/03/17 08:39:15;;;;;;;5.22;3.35;;;5.80;91.00;;;;;;4955543;28;20018;-59
2023/03/17 08:41:40;;;;;;;3.60;3.13;;;5.80;91.10;;;;;;4955798;28;20035;-57
2023/03/17 08:44:07;;;;;;;4.30;3.15;;;5.90;91.00;;;;;;4954128;28;20043;-61
2023/03/17 08:46:34;;;;;;;4.03;3.20;;;5.90;91.00;;;;;;4957586;28;21300;-60
2023/03/17 08:49:00;;;;;;;4.93;3.10;;;5.90;90.90;;;;;;4949249;28;20045;-59
2023/03/17 08:51:31;;;;;;;3.55;2.83;;;5.90;91.00;;;;;;4954781;28;20030;-59
2023/03/17 08:53:58;;;;;;;4.07;2.97;;;5.90;91.00;;;;;;4962178;28;20039;-59
2023/03/17 08:56:24;;;;;;;4.40;3.42;;;5.90;91.00;;;;;;4958543;28;20859;-60
2023/03/17 08:58:50;;;;;;;5.47;3.40;;;5.90;91.00;;;;;;4962186;28;20031;-61
2023/03/17 09:01:19;;;;;;;4.50;3.00;;;6.00;91.00;;;;;;4948655;28;20049;-60
2023/03/17 09:03:45;;;;;;;5.60;3.45;;;6.00;90.80;;;;;;4949235;28;20156;-62
2023/03/17 09:06:12;;;;;;;4.50;3.25;;;6.00;90.80;;;;;;4949805;28;20660;-62
2023/03/17 09:08:43;;;;;;;5.07;3.30;;;6.00;90.90;;;;;;4955188;28;20034;-62
2023/03/17 09:11:11;;;;;;;4.88;3.10;;;6.00;90.80;;;;;;4957253;28;20042;-60
2023/03/17 09:13:37;;;;;;;3.53;3.08;;;6.10;90.80;;;;;;4952630;28;20093;-61
2023/03/17 09:16:04;;;;;;;3.80;2.92;;;6.10;90.70;;;;;;4952329;28;20034;-59
2023/03/17 09:18:31;;;;;;;4.38;3.05;;;6.10;90.70;;;;;;4955324;28;20035;-60
2023/03/17 09:20:57;;;;;;;3.20;2.85;;;6.10;90.60;;;;;;4955384;28;20028;-61
2023/03/17 09:23:24;;;;;;;4.50;2.92;;;6.20;90.60;;;;;;4963097;28;20089;-60
2023/03/17 09:25:51;;;;;;;3.20;2.70;;;6.30;90.60;;;;;;4954728;28;20134;-61
2023/03/17 09:28:17;;;;;;;4.07;2.83;;;6.30;90.50;;;;;;4959514;28;21653;-61
2023/03/17 09:30:44;;;;;;;4.25;3.10;;;6.30;90.40;;;;;;4951042;28;20026;-62
2023/03/17 09:33:10;;;;;;;3.45;2.88;;;6.30;90.30;;;;;;4962818;28;20041;-62
2023/03/17 09:35:37;;;;;;;3.35;2.97;;;6.40;90.40;;;;;;4964880;28;20120;-62
2023/03/17 09:38:02;;;;;;;3.75;2.80;;;6.40;90.30;;;;;;4962921;28;20110;-58
2023/03/17 09:40:36;;;;;;;4.35;3.13;;;6.40;90.20;;;;;;4950633;28;20050;-60
2023/03/17 09:43:19;;;;;;;5.78;3.15;;;6.40;90.10;;;;;;4962251;28;20097;-60
2023/03/17 09:45:45;;;;;;;4.93;3.42;;;6.40;90.10;;;;;;4959715;28;20138;-60
2023/03/17 09:48:14;;;;;;;4.53;3.10;;;6.40;90.10;;;;;;4955022;28;20035;-59
2023/03/17 09:51:03;;;;;;;4.47;3.00;;;6.50;90.10;;;;;;4961248;28;20033;-62
2023/03/17 09:53:34;;;;;;;3.88;3.20;;;6.50;90.10;;;;;;4959027;28;20498;-61
2023/03/17 09:56:11;;;;;;;4.85;3.53;;;6.50;90.10;;;;;;4956819;28;20071;-62
2023/03/17 09:58:40;;;;;;;4.50;3.45;;;6.50;90.00;;;;;;4957212;28;20034;-60
2023/03/17 10:01:09;;;;;;;5.20;3.42;;;6.60;90.00;;;;;;4956492;28;20039;-60
2023/03/17 10:03:36;;;;;;;4.28;3.10;;;6.60;90.00;;;;;;4960811;28;20031;-62
2023/03/17 10:06:24;;;;;;;4.82;3.42;;;6.60;90.00;;;;;;4950135;28;20050;-61
2023/03/17 10:09:25;;;;;;;5.00;3.22;;;6.60;89.40;;;;;;4966088;28;20022;-61
2023/03/17 10:12:07;;;;;;;4.85;3.10;;;6.60;89.70;;;;;;4954477;28;20053;-65
2023/03/17 10:14:40;;;;;;;;;;;6.70;89.40;;;;;;4956870;28;20058;-62
2023/03/17 10:17:30;;;;;;;4.75;2.72;;;6.60;89.00;;;;;;4948305;28;19918;-61
2023/03/17 10:20:23;;;;;;;3.65;2.80;;;6.70;89.40;;;;;;4949424;28;20041;-61
2023/03/17 10:23:02;;;;;;;3.25;2.78;;;6.70;89.40;;;;;;4956172;28;20047;-63
2023/03/17 10:25:31;;;;;;;4.32;3.22;;;6.70;89.50;;;;;;4952678;28;20097;-62
2023/03/17 10:27:58;;;;;;;4.30;3.30;;;6.70;89.50;;;;;;4954957;28;20840;-61
2023/03/17 10:30:24;;;;;;;3.83;2.90;;;6.80;89.40;;;;;;4951125;28;20445;-61
2023/03/17 10:32:53;;;;;;;3.45;2.90;;;6.80;89.20;;;;;;4952185;28;20034;-63
2023/03/17 10:35:19;;;;;;;3.65;2.83;;;6.90;89.20;;;;;;4949660;28;20045;-61
2023/03/17 10:37:47;;;;;;;4.22;3.10;;;6.90;89.30;;;;;;4956833;28;20034;-61
2023/03/17 10:40:23;;;;;;;3.55;2.70;;;6.90;88.90;;;;;;4956645;28;20114;-61
2023/03/17 10:42:59;;;;;;;3.33;2.90;;;6.90;88.40;;;;;;4959915;28;20029;-61
2023/03/17 10:45:31;;;;;;;4.32;3.08;;;7.00;88.50;;;;;;4953938;28;20050;-62
2023/03/17 10:47:58;;;;;;;4.20;3.15;;;7.00;88.40;;;;;;4959515;28;20043;-61
2023/03/17 10:50:31;;;;;;;3.78;3.15;;;7.00;88.30;;;;;;4955454;28;20055;-61
2023/03/17 10:52:59;;;;;;;2.97;2.70;;;7.00;88.10;;;;;;4961942;28;20483;-60
2023/03/17 10:55:39;;;;;;;3.00;2.53;;;7.00;88.20;;;;;;4962253;28;20039;-61
2023/03/17 10:58:12;;;;;;;3.28;2.75;;;7.00;88.10;;;;;;4956228;28;20096;-61
2023/03/17 11:00:46;;;;;;;3.38;3.08;;;7.00;88.00;;;;;;4958350;28;20347;-59
2023/03/17 11:03:21;;;;;;;3.38;2.90;;;7.00;87.80;;;;;;4957372;28;20040;-61
2023/03/17 11:06:05;;;;;;;3.35;3.05;;;7.00;87.60;;;;;;4953233;28;20042;-60
2023/03/17 11:08:34;;;;;;;3.63;2.88;;;7.00;87.80;;;;;;4956038;28;20066;-61
2023/03/17 11:11:08;;;;;;;4.25;2.92;;;7.00;87.70;;;;;;4949608;28;20062;-60
2023/03/17 11:13:35;;;;;;;3.15;2.83;;;7.00;87.60;;;;;;4950244;28;20410;-60
2023/03/17 11:16:07;;;;;;;2.78;2.58;;;7.00;87.60;;;;;;4945289;28;20035;-60
2023/03/17 11:18:38;;;;;;;3.30;3.00;;;7.00;87.60;;;;;;4954274;28;20353;-61
2023/03/17 11:21:14;;;;;;;4.75;2.88;;;7.00;87.60;;;;;;4955033;28;20050;-60
2023/03/17 11:23:56;;;;;;;3.15;2.65;;;7.00;87.70;;;;;;4955872;28;20834;-61
2023/03/17 11:26:53;;;;;;;3.17;2.83;;;7.00;87.50;;;;;;4952068;28;20132;-61
2023/03/17 11:29:25;;;;;;;3.35;2.80;;;7.00;87.40;;;;;;4957649;28;20417;-60
2023/03/17 11:32:17;;;;;;;3.47;2.78;;;7.00;87.60;;;;;;4956990;28;20043;-60
2023/03/17 11:35:04;;;;;;;3.53;2.80;;;7.10;87.50;;;;;;4954438;28;20047;-61
2023/03/17 11:37:41;;;;;;;3.40;2.78;;;7.10;87.60;;;;;;4954420;28;20041;-61
2023/03/17 11:40:13;;;;;;;3.15;2.85;;;7.10;87.50;;;;;;4953646;28;20066;-62
2023/03/17 11:43:05;;;;;;;3.65;3.00;;;7.10;87.60;;;;;;4970172;28;20454;-60
2023/03/17 11:45:52;;;;;;;3.47;2.97;;;7.20;87.20;;;;;;4951105;28;20157;-60
2023/03/17 11:48:36;;;;;;;3.67;3.20;;;7.20;87.30;;;;;;4961011;28;20194;-62
2023/03/17 11:51:11;;;;;;;3.83;3.08;;;7.20;87.50;;;;;;4958574;28;20124;-61
2023/03/17 11:53:48;;;;;;;3.95;2.80;;;7.20;87.30;;;;;;4958249;28;20093;-62
2023/03/17 11:56:43;;;;;;;3.30;2.97;;;7.20;86.90;;;;;;4960221;28;20035;-61
2023/03/17 11:59:38;;;;;;;3.42;2.90;;;7.20;86.90;;;;;;4960252;28;20030;-61
2023/03/17 12:02:26;;;;;;;3.95;3.17;;;7.20;86.90;;;;;;4954205;28;20034;-59
2023/03/17 12:04:58;;;;;;;3.38;2.80;;;7.20;86.90;;;;;;4961421;28;20152;-61
2023/03/17 12:07:32;;;;;;;3.53;3.20;;;7.10;87.00;;;;;;4961094;28;20093;-61
2023/03/17 12:10:16;;;;;;;3.03;2.72;;;7.20;87.10;;;;;;4963713;28;20042;-61
2023/03/17 12:12:49;;;;;;;3.22;2.92;;;7.10;86.90;;;;;;4964227;28;20031;-64
2023/03/17 12:15:33;;;;;;;3.55;3.17;;;7.10;86.80;;;;;;4961161;28;20057;-62
2023/03/17 12:18:04;;;;;;;3.15;2.85;;;7.10;86.80;;;;;;4961801;28;20110;-61
2023/03/17 12:20:48;;;;;;;3.40;3.10;;;7.10;87.00;;;;;;4962166;28;20031;-61
2023/03/17 12:23:39;;;;;;;3.47;3.10;;;7.10;86.90;;;;;;4965672;28;20031;-62
2023/03/17 12:26:41;;;;;;;3.40;3.00;;;7.10;86.90;;;;;;4971582;28;20046;-61
2023/03/17 12:29:36;;;;;;;3.33;3.00;;;7.10;86.70;;;;;;4939249;28;20058;-61
2023/03/17 12:32:21;;;;;;;3.05;2.75;;;7.10;86.90;;;;;;4959776;28;20073;-60
2023/03/17 12:34:54;;;;;;;4.50;3.30;;;7.00;87.00;;;;;;4968327;28;20047;-61
2023/03/17 12:37:21;;;;;;;3.47;3.05;;;7.00;86.90;;;;;;4958658;28;20398;-61
2023/03/17 12:40:07;;;;;;;3.42;3.08;;;7.00;87.00;;;;;;4962875;28;20035;-61
2023/03/17 12:42:37;;;;;;;4.07;3.20;;;7.00;86.80;;;;;;4960906;28;20050;-64
2023/03/17 12:45:29;;;;;;;2.83;2.63;;;7.00;87.60;;;;;;4963151;28;20031;-62
2023/03/17 12:48:18;;;;;;;3.13;2.80;;;7.00;86.90;;;;;;4958995;28;20126;-61
2023/03/17 12:51:04;;;;;;;3.50;2.92;;;7.00;87.10;;;;;;4956452;28;20043;-63
2023/03/17 12:53:39;;;;;;;3.33;3.03;;;6.90;87.10;;;;;;4958410;28;20131;-64
2023/03/17 12:56:19;;;;;;;2.83;2.55;;;7.00;87.30;;;;;;4965034;28;20027;-61
2023/03/17 12:58:49;;;;;;;4.35;3.22;;;6.90;87.20;;;;;;4959936;28;20840;-63
2023/03/17 13:01:33;;;;;;;3.15;2.85;;;6.90;87.30;;;;;;4957734;28;21458;-63
2023/03/17 13:04:16;;;;;;;3.92;3.10;;;7.00;87.50;;;;;;4961529;28;20035;-62
2023/03/17 13:06:53;;;;;;;3.25;2.95;;;6.90;87.30;;;;;;4956729;28;20541;-62
2023/03/17 13:09:42;;;;;;;3.22;2.70;;;7.00;87.60;;;;;;4960541;28;20038;-62
2023/03/17 13:12:34;;;;;;;3.10;2.80;;;7.00;87.30;;;;;;4955729;28;20046;-62